sensor_id;sensor_type;location;lat;lon;timestamp;temperature;humidity
6355;DHT22;3210;48.708;9.030;2023-04-03T00:00:09;2.50;29.20
6355;DHT22;3210;48.708;9.030;2023-04-03T00:02:36;2.50;14.30
6355;DHT22;3210;48.708;9.030;2023-04-03T00:05:03;2.50;15.70
6355;DHT22;3210;48.708;9.030;2023-04-03T00:07:30;2.50;14.00
6355;DHT22;3210;48.708;9.030;2023-04-03T00:09:56;2.50;12.80
6355;DHT22;3210;48.708;9.030;2023-04-03T00:12:25;2.50;15.70
6355;DHT22;3210;48.708;9.030;2023-04-03T00:14:51;2.50;14.30
6355;DHT22;3210;48.708;9.030;2023-04-03T00:17:18;2.40;12.50
6355;DHT22;3210;48.708;9.030;2023-04-03T00:19:45;2.40;13.30
6355;DHT22;3210;48.708;9.030;2023-04-03T00:22:11;2.40;14.80
6355;DHT22;3210;48.708;9.030;2023-04-03T00:24:38;2.40;13.30
6355;DHT22;3210;48.708;9.030;2023-04-03T00:27:05;2.40;9.50
6355;DHT22;3210;48.708;9.030;2023-04-03T00:29:33;2.40;13.80
6355;DHT22;3210;48.708;9.030;2023-04-03T00:32:00;2.40;12.10
6355;DHT22;3210;48.708;9.030;2023-04-03T00:34:26;2.40;11.40
6355;DHT22;3210;48.708;9.030;2023-04-03T00:36:53;2.40;13.70
6355;DHT22;3210;48.708;9.030;2023-04-03T00:39:20;2.40;14.30
6355;DHT22;3210;48.708;9.030;2023-04-03T00:41:47;2.40;11.30
6355;DHT22;3210;48.708;9.030;2023-04-03T00:47:30;2.40;13.00
6355;DHT22;3210;48.708;9.030;2023-04-03T00:49:57;2.40;11.50
6355;DHT22;3210;48.708;9.030;2023-04-03T00:52:28;2.40;9.70
6355;DHT22;3210;48.708;9.030;2023-04-03T00:54:58;2.30;11.30
6355;DHT22;3210;48.708;9.030;2023-04-03T00:57:27;2.40;12.50
6355;DHT22;3210;48.708;9.030;2023-04-03T00:59:56;2.30;11.20
6355;DHT22;3210;48.708;9.030;2023-04-03T01:02:24;2.30;9.80
6355;DHT22;3210;48.708;9.030;2023-04-03T01:04:52;2.20;8.30
6355;DHT22;3210;48.708;9.030;2023-04-03T01:07:21;2.30;10.50
6355;DHT22;3210;48.708;9.030;2023-04-03T01:09:51;2.30;9.40
6355;DHT22;3210;48.708;9.030;2023-04-03T01:12:21;2.30;12.20
6355;DHT22;3210;48.708;9.030;2023-04-03T01:14:50;2.20;10.50
6355;DHT22;3210;48.708;9.030;2023-04-03T01:17:31;2.30;11.40
6355;DHT22;3210;48.708;9.030;2023-04-03T01:23:17;2.30;9.50
6355;DHT22;3210;48.708;9.030;2023-04-03T01:25:50;2.20;7.20
6355;DHT22;3210;48.708;9.030;2023-04-03T01:28:20;2.20;7.80
6355;DHT22;3210;48.708;9.030;2023-04-03T01:30:51;2.20;5.50
6355;DHT22;3210;48.708;9.030;2023-04-03T01:33:21;2.10;8.50
6355;DHT22;3210;48.708;9.030;2023-04-03T01:35:47;2.10;9.00
6355;DHT22;3210;48.708;9.030;2023-04-03T01:38:14;2.10;8.90
6355;DHT22;3210;48.708;9.030;2023-04-03T01:40:41;2.10;8.90
6355;DHT22;3210;48.708;9.030;2023-04-03T01:43:08;2.00;8.60
6355;DHT22;3210;48.708;9.030;2023-04-03T01:45:35;2.00;8.00
6355;DHT22;3210;48.708;9.030;2023-04-03T01:48:02;2.00;9.50
6355;DHT22;3210;48.708;9.030;2023-04-03T01:50:30;2.00;11.00
6355;DHT22;3210;48.708;9.030;2023-04-03T01:52:57;2.10;9.40
6355;DHT22;3210;48.708;9.030;2023-04-03T01:55:24;2.10;9.40
6355;DHT22;3210;48.708;9.030;2023-04-03T01:57:51;2.00;8.60
6355;DHT22;3210;48.708;9.030;2023-04-03T02:00:18;1.90;9.60
6355;DHT22;3210;48.708;9.030;2023-04-03T02:02:45;2.00;11.90
6355;DHT22;3210;48.708;9.030;2023-04-03T02:05:11;2.00;10.70
6355;DHT22;3210;48.708;9.030;2023-04-03T02:07:39;1.90;8.60
6355;DHT22;3210;48.708;9.030;2023-04-03T02:10:07;1.90;12.90
6355;DHT22;3210;48.708;9.030;2023-04-03T02:12:33;1.80;11.00
6355;DHT22;3210;48.708;9.030;2023-04-03T02:15:00;1.80;12.50
6355;DHT22;3210;48.708;9.030;2023-04-03T02:17:27;1.70;14.50
6355;DHT22;3210;48.708;9.030;2023-04-03T02:19:54;1.80;13.80
6355;DHT22;3210;48.708;9.030;2023-04-03T02:22:20;1.80;13.00
6355;DHT22;3210;48.708;9.030;2023-04-03T02:24:48;1.80;14.50
6355;DHT22;3210;48.708;9.030;2023-04-03T02:27:17;1.80;15.30
6355;DHT22;3210;48.708;9.030;2023-04-03T02:29:43;1.80;17.40
6355;DHT22;3210;48.708;9.030;2023-04-03T02:32:10;1.70;15.00
6355;DHT22;3210;48.708;9.030;2023-04-03T02:34:37;1.70;17.30
6355;DHT22;3210;48.708;9.030;2023-04-03T02:37:03;1.70;18.40
6355;DHT22;3210;48.708;9.030;2023-04-03T02:39:30;1.70;19.60
6355;DHT22;3210;48.708;9.030;2023-04-03T02:41:58;1.70;19.80
6355;DHT22;3210;48.708;9.030;2023-04-03T02:44:25;1.70;16.80
6355;DHT22;3210;48.708;9.030;2023-04-03T02:46:52;1.70;29.90
6355;DHT22;3210;48.708;9.030;2023-04-03T02:49:18;1.80;19.10
6355;DHT22;3210;48.708;9.030;2023-04-03T02:51:45;1.80;18.40
6355;DHT22;3210;48.708;9.030;2023-04-03T02:54:13;1.80;17.70
6355;DHT22;3210;48.708;9.030;2023-04-03T02:56:40;1.80;16.40
6355;DHT22;3210;48.708;9.030;2023-04-03T02:59:08;1.90;15.70
6355;DHT22;3210;48.708;9.030;2023-04-03T03:01:34;1.80;13.00
6355;DHT22;3210;48.708;9.030;2023-04-03T03:04:01;1.80;11.00
6355;DHT22;3210;48.708;9.030;2023-04-03T03:06:28;1.80;9.70
6355;DHT22;3210;48.708;9.030;2023-04-03T03:08:55;1.80;10.90
6355;DHT22;3210;48.708;9.030;2023-04-03T03:11:21;1.80;6.40
6355;DHT22;3210;48.708;9.030;2023-04-03T03:13:48;1.80;6.10
6355;DHT22;3210;48.708;9.030;2023-04-03T03:16:16;1.80;5.40
6355;DHT22;3210;48.708;9.030;2023-04-03T03:18:43;1.80;3.10
6355;DHT22;3210;48.708;9.030;2023-04-03T03:21:10;1.80;4.40
6355;DHT22;3210;48.708;9.030;2023-04-03T03:23:37;1.80;1.00
6355;DHT22;3210;48.708;9.030;2023-04-03T03:26:05;1.90;2.00
6355;DHT22;3210;48.708;9.030;2023-04-03T03:28:32;1.90;1.00
6355;DHT22;3210;48.708;9.030;2023-04-03T03:31:00;1.90;1.00
6355;DHT22;3210;48.708;9.030;2023-04-03T03:33:29;1.90;1.00
6355;DHT22;3210;48.708;9.030;2023-04-03T03:35:56;1.90;1.00
6355;DHT22;3210;48.708;9.030;2023-04-03T03:38:22;1.90;1.00
6355;DHT22;3210;48.708;9.030;2023-04-03T03:40:50;2.00;1.00
6355;DHT22;3210;48.708;9.030;2023-04-03T03:43:18;2.00;1.00
6355;DHT22;3210;48.708;9.030;2023-04-03T03:45:49;2.00;1.00
6355;DHT22;3210;48.708;9.030;2023-04-03T03:48:17;1.90;1.00
6355;DHT22;3210;48.708;9.030;2023-04-03T03:50:45;1.90;1.00
6355;DHT22;3210;48.708;9.030;2023-04-03T03:53:12;1.90;1.00
6355;DHT22;3210;48.708;9.030;2023-04-03T03:55:38;2.00;1.00
6355;DHT22;3210;48.708;9.030;2023-04-03T03:58:05;1.90;1.00
6355;DHT22;3210;48.708;9.030;2023-04-03T04:00:32;1.90;1.00
6355;DHT22;3210;48.708;9.030;2023-04-03T04:02:59;1.90;1.00
6355;DHT22;3210;48.708;9.030;2023-04-03T04:05:26;1.90;1.00
6355;DHT22;3210;48.708;9.030;2023-04-03T04:07:54;1.90;1.00
6355;DHT22;3210;48.708;9.030;2023-04-03T04:10:21;1.90;1.00
6355;DHT22;3210;48.708;9.030;2023-04-03T04:12:47;2.00;1.00
6355;DHT22;3210;48.708;9.030;2023-04-03T04:15:16;2.10;1.00
6355;DHT22;3210;48.708;9.030;2023-04-03T04:17:43;2.30;1.00
6355;DHT22;3210;48.708;9.030;2023-04-03T04:20:11;2.20;1.00
6355;DHT22;3210;48.708;9.030;2023-04-03T04:22:38;2.10;1.00
6355;DHT22;3210;48.708;9.030;2023-04-03T04:25:07;2.10;1.00
6355;DHT22;3210;48.708;9.030;2023-04-03T04:27:34;2.00;1.00
6355;DHT22;3210;48.708;9.030;2023-04-03T04:30:00;2.10;1.00
6355;DHT22;3210;48.708;9.030;2023-04-03T04:32:28;2.10;1.00
6355;DHT22;3210;48.708;9.030;2023-04-03T04:34:55;2.10;1.00
6355;DHT22;3210;48.708;9.030;2023-04-03T04:37:21;2.10;1.00
6355;DHT22;3210;48.708;9.030;2023-04-03T04:39:48;2.20;1.00
6355;DHT22;3210;48.708;9.030;2023-04-03T04:42:16;2.20;1.00
6355;DHT22;3210;48.708;9.030;2023-04-03T04:44:43;2.20;1.00
6355;DHT22;3210;48.708;9.030;2023-04-03T04:47:10;2.30;1.00
6355;DHT22;3210;48.708;9.030;2023-04-03T04:49:37;2.20;1.00
6355;DHT22;3210;48.708;9.030;2023-04-03T04:52:04;2.20;1.00
6355;DHT22;3210;48.708;9.030;2023-04-03T04:54:31;2.20;1.00
6355;DHT22;3210;48.708;9.030;2023-04-03T04:56:58;2.10;1.00
6355;DHT22;3210;48.708;9.030;2023-04-03T04:59:26;2.10;1.00
6355;DHT22;3210;48.708;9.030;2023-04-03T05:01:53;2.10;1.00
6355;DHT22;3210;48.708;9.030;2023-04-03T05:04:20;2.20;1.00
6355;DHT22;3210;48.708;9.030;2023-04-03T05:06:47;2.20;1.00
6355;DHT22;3210;48.708;9.030;2023-04-03T05:09:13;2.20;1.00
6355;DHT22;3210;48.708;9.030;2023-04-03T05:11:41;2.30;1.00
6355;DHT22;3210;48.708;9.030;2023-04-03T05:14:08;2.30;1.00
6355;DHT22;3210;48.708;9.030;2023-04-03T05:16:36;2.40;1.00
6355;DHT22;3210;48.708;9.030;2023-04-03T05:19:03;2.30;1.00
6355;DHT22;3210;48.708;9.030;2023-04-03T05:21:30;2.30;1.00
6355;DHT22;3210;48.708;9.030;2023-04-03T05:23:57;2.30;1.00
6355;DHT22;3210;48.708;9.030;2023-04-03T05:26:24;2.30;1.00
6355;DHT22;3210;48.708;9.030;2023-04-03T05:28:52;2.40;1.00
6355;DHT22;3210;48.708;9.030;2023-04-03T05:31:19;2.40;1.00
6355;DHT22;3210;48.708;9.030;2023-04-03T05:33:47;2.30;1.00
6355;DHT22;3210;48.708;9.030;2023-04-03T05:36:14;2.30;1.00
6355;DHT22;3210;48.708;9.030;2023-04-03T05:38:40;2.30;1.00
6355;DHT22;3210;48.708;9.030;2023-04-03T05:41:07;2.30;1.00
6355;DHT22;3210;48.708;9.030;2023-04-03T05:43:34;2.40;1.00
6355;DHT22;3210;48.708;9.030;2023-04-03T05:46:03;2.40;1.00
6355;DHT22;3210;48.708;9.030;2023-04-03T05:48:30;2.50;1.00
6355;DHT22;3210;48.708;9.030;2023-04-03T05:50:58;2.50;1.00
6355;DHT22;3210;48.708;9.030;2023-04-03T05:53:28;2.50;1.00
6355;DHT22;3210;48.708;9.030;2023-04-03T05:55:55;2.50;1.00
6355;DHT22;3210;48.708;9.030;2023-04-03T05:58:22;2.60;1.00
6355;DHT22;3210;48.708;9.030;2023-04-03T06:00:49;2.80;1.00
6355;DHT22;3210;48.708;9.030;2023-04-03T06:03:15;2.60;1.00
6355;DHT22;3210;48.708;9.030;2023-04-03T06:05:43;2.50;1.00
6355;DHT22;3210;48.708;9.030;2023-04-03T06:08:11;2.50;1.00
6355;DHT22;3210;48.708;9.030;2023-04-03T06:10:38;2.40;1.00
6355;DHT22;3210;48.708;9.030;2023-04-03T06:13:05;2.40;1.00
6355;DHT22;3210;48.708;9.030;2023-04-03T06:15:32;2.50;1.00
6355;DHT22;3210;48.708;9.030;2023-04-03T06:17:59;2.40;1.00
6355;DHT22;3210;48.708;9.030;2023-04-03T06:20:26;2.30;1.00
6355;DHT22;3210;48.708;9.030;2023-04-03T06:22:53;2.30;1.00
6355;DHT22;3210;48.708;9.030;2023-04-03T06:25:21;2.30;1.00
6355;DHT22;3210;48.708;9.030;2023-04-03T06:27:48;2.30;1.00
6355;DHT22;3210;48.708;9.030;2023-04-03T06:30:15;2.50;1.00
6355;DHT22;3210;48.708;9.030;2023-04-03T06:32:41;2.40;1.00
6355;DHT22;3210;48.708;9.030;2023-04-03T06:35:09;2.50;1.00
6355;DHT22;3210;48.708;9.030;2023-04-03T06:37:36;2.60;1.00
6355;DHT22;3210;48.708;9.030;2023-04-03T06:40:04;2.60;1.00
6355;DHT22;3210;48.708;9.030;2023-04-03T06:42:32;2.60;1.00
6355;DHT22;3210;48.708;9.030;2023-04-03T06:44:59;2.60;1.00
6355;DHT22;3210;48.708;9.030;2023-04-03T06:47:26;2.80;1.00
6355;DHT22;3210;48.708;9.030;2023-04-03T06:49:53;2.90;1.00
6355;DHT22;3210;48.708;9.030;2023-04-03T06:52:20;2.90;1.00
6355;DHT22;3210;48.708;9.030;2023-04-03T06:54:47;2.80;1.00
6355;DHT22;3210;48.708;9.030;2023-04-03T06:57:13;2.90;1.00
6355;DHT22;3210;48.708;9.030;2023-04-03T06:59:42;3.10;1.00
6355;DHT22;3210;48.708;9.030;2023-04-03T07:02:11;2.90;1.00
6355;DHT22;3210;48.708;9.030;2023-04-03T07:04:38;3.00;1.00
6355;DHT22;3210;48.708;9.030;2023-04-03T07:07:04;3.10;1.00
6355;DHT22;3210;48.708;9.030;2023-04-03T07:09:31;3.20;1.00
6355;DHT22;3210;48.708;9.030;2023-04-03T07:11:58;3.20;1.00
6355;DHT22;3210;48.708;9.030;2023-04-03T07:14:25;3.10;1.00
6355;DHT22;3210;48.708;9.030;2023-04-03T07:16:53;3.10;1.00
6355;DHT22;3210;48.708;9.030;2023-04-03T07:19:20;3.30;1.00
6355;DHT22;3210;48.708;9.030;2023-04-03T07:21:47;3.20;1.00
6355;DHT22;3210;48.708;9.030;2023-04-03T07:24:14;3.30;1.00
6355;DHT22;3210;48.708;9.030;2023-04-03T07:26:40;3.30;1.00
6355;DHT22;3210;48.708;9.030;2023-04-03T07:29:07;3.30;1.00
6355;DHT22;3210;48.708;9.030;2023-04-03T07:31:34;3.40;1.00
6355;DHT22;3210;48.708;9.030;2023-04-03T07:34:02;3.40;1.00
6355;DHT22;3210;48.708;9.030;2023-04-03T07:36:29;3.50;1.00
6355;DHT22;3210;48.708;9.030;2023-04-03T07:38:58;3.60;1.00
6355;DHT22;3210;48.708;9.030;2023-04-03T07:41:25;3.40;1.00
6355;DHT22;3210;48.708;9.030;2023-04-03T07:43:52;3.50;1.00
6355;DHT22;3210;48.708;9.030;2023-04-03T07:46:19;3.50;1.00
6355;DHT22;3210;48.708;9.030;2023-04-03T07:48:46;3.50;1.00
6355;DHT22;3210;48.708;9.030;2023-04-03T07:51:14;3.60;1.00
6355;DHT22;3210;48.708;9.030;2023-04-03T07:53:41;3.70;1.00
6355;DHT22;3210;48.708;9.030;2023-04-03T07:56:08;3.50;1.00
6355;DHT22;3210;48.708;9.030;2023-04-03T07:58:36;3.70;1.00
6355;DHT22;3210;48.708;9.030;2023-04-03T08:01:03;3.60;1.00
6355;DHT22;3210;48.708;9.030;2023-04-03T08:03:30;3.70;1.00
6355;DHT22;3210;48.708;9.030;2023-04-03T08:06:02;3.80;1.00
6355;DHT22;3210;48.708;9.030;2023-04-03T08:08:31;3.60;1.00
6355;DHT22;3210;48.708;9.030;2023-04-03T08:10:59;3.60;1.00
6355;DHT22;3210;48.708;9.030;2023-04-03T08:13:28;3.60;1.00
6355;DHT22;3210;48.708;9.030;2023-04-03T08:15:55;3.50;1.00
6355;DHT22;3210;48.708;9.030;2023-04-03T08:18:23;3.60;1.00
6355;DHT22;3210;48.708;9.030;2023-04-03T08:20:51;3.60;1.00
6355;DHT22;3210;48.708;9.030;2023-04-03T08:23:18;4.00;1.00
6355;DHT22;3210;48.708;9.030;2023-04-03T08:25:46;4.30;1.00
6355;DHT22;3210;48.708;9.030;2023-04-03T08:28:13;4.30;1.00
6355;DHT22;3210;48.708;9.030;2023-04-03T08:30:40;4.20;1.00
6355;DHT22;3210;48.708;9.030;2023-04-03T08:33:08;4.10;1.00
6355;DHT22;3210;48.708;9.030;2023-04-03T08:35:38;4.20;1.00
6355;DHT22;3210;48.708;9.030;2023-04-03T08:38:06;4.40;1.00
6355;DHT22;3210;48.708;9.030;2023-04-03T08:40:32;4.30;1.00
6355;DHT22;3210;48.708;9.030;2023-04-03T08:43:12;4.10;1.00
6355;DHT22;3210;48.708;9.030;2023-04-03T08:45:50;3.90;1.00
6355;DHT22;3210;48.708;9.030;2023-04-03T08:48:20;4.20;1.00
6355;DHT22;3210;48.708;9.030;2023-04-03T08:50:50;4.40;1.00
6355;DHT22;3210;48.708;9.030;2023-04-03T08:53:20;4.20;1.00
6355;DHT22;3210;48.708;9.030;2023-04-03T08:55:49;4.00;1.00
6355;DHT22;3210;48.708;9.030;2023-04-03T08:58:20;4.00;1.00
6355;DHT22;3210;48.708;9.030;2023-04-03T09:00:50;4.30;1.00
6355;DHT22;3210;48.708;9.030;2023-04-03T09:03:19;4.50;1.00
6355;DHT22;3210;48.708;9.030;2023-04-03T09:05:49;4.40;1.00
6355;DHT22;3210;48.708;9.030;2023-04-03T09:08:25;4.30;1.00
6355;DHT22;3210;48.708;9.030;2023-04-03T09:11:00;4.70;1.00
6355;DHT22;3210;48.708;9.030;2023-04-03T09:13:39;4.60;1.00
6355;DHT22;3210;48.708;9.030;2023-04-03T09:16:20;4.40;1.00
6355;DHT22;3210;48.708;9.030;2023-04-03T09:18:53;4.30;1.00
6355;DHT22;3210;48.708;9.030;2023-04-03T09:21:26;4.10;1.00
6355;DHT22;3210;48.708;9.030;2023-04-03T09:23:59;4.00;1.00
6355;DHT22;3210;48.708;9.030;2023-04-03T09:26:30;4.20;1.00
6355;DHT22;3210;48.708;9.030;2023-04-03T09:29:05;4.50;1.00
6355;DHT22;3210;48.708;9.030;2023-04-03T09:31:36;4.60;1.00
6355;DHT22;3210;48.708;9.030;2023-04-03T09:34:08;4.60;1.00
6355;DHT22;3210;48.708;9.030;2023-04-03T09:36:41;4.80;1.00
6355;DHT22;3210;48.708;9.030;2023-04-03T09:39:12;4.60;1.00
6355;DHT22;3210;48.708;9.030;2023-04-03T09:41:40;4.70;1.00
6355;DHT22;3210;48.708;9.030;2023-04-03T09:44:21;4.80;1.00
6355;DHT22;3210;48.708;9.030;2023-04-03T09:46:48;4.70;1.00
6355;DHT22;3210;48.708;9.030;2023-04-03T09:49:15;4.70;1.00
6355;DHT22;3210;48.708;9.030;2023-04-03T09:51:42;5.00;1.00
6355;DHT22;3210;48.708;9.030;2023-04-03T09:54:34;5.00;1.00
6355;DHT22;3210;48.708;9.030;2023-04-03T09:57:10;5.00;1.00
6355;DHT22;3210;48.708;9.030;2023-04-03T09:59:43;4.90;1.00
6355;DHT22;3210;48.708;9.030;2023-04-03T10:02:23;5.10;1.00
6355;DHT22;3210;48.708;9.030;2023-04-03T10:04:54;5.10;1.00
6355;DHT22;3210;48.708;9.030;2023-04-03T10:07:27;5.30;1.00
6355;DHT22;3210;48.708;9.030;2023-04-03T10:09:56;5.40;1.00
6355;DHT22;3210;48.708;9.030;2023-04-03T10:12:24;5.60;1.00
6355;DHT22;3210;48.708;9.030;2023-04-03T10:14:56;5.30;1.00
6355;DHT22;3210;48.708;9.030;2023-04-03T10:17:33;5.30;1.00
6355;DHT22;3210;48.708;9.030;2023-04-03T10:20:07;4.80;1.00
6355;DHT22;3210;48.708;9.030;2023-04-03T10:22:40;4.80;1.00
6355;DHT22;3210;48.708;9.030;2023-04-03T10:25:14;4.80;1.00
6355;DHT22;3210;48.708;9.030;2023-04-03T10:27:49;4.70;1.00
6355;DHT22;3210;48.708;9.030;2023-04-03T10:30:28;4.90;1.00
6355;DHT22;3210;48.708;9.030;2023-04-03T10:33:05;4.70;1.00
6355;DHT22;3210;48.708;9.030;2023-04-03T10:35:42;5.00;1.00
6355;DHT22;3210;48.708;9.030;2023-04-03T10:38:16;5.20;1.00
6355;DHT22;3210;48.708;9.030;2023-04-03T10:40:54;5.40;1.00
6355;DHT22;3210;48.708;9.030;2023-04-03T10:43:30;4.80;1.00
6355;DHT22;3210;48.708;9.030;2023-04-03T10:46:03;4.90;1.00
6355;DHT22;3210;48.708;9.030;2023-04-03T10:48:40;5.00;1.00
6355;DHT22;3210;48.708;9.030;2023-04-03T10:51:16;5.00;1.00
6355;DHT22;3210;48.708;9.030;2023-04-03T10:53:53;4.90;1.00
6355;DHT22;3210;48.708;9.030;2023-04-03T10:56:30;4.90;1.00
6355;DHT22;3210;48.708;9.030;2023-04-03T10:59:05;4.80;1.00
6355;DHT22;3210;48.708;9.030;2023-04-03T11:01:38;4.90;1.00
6355;DHT22;3210;48.708;9.030;2023-04-03T11:04:09;4.90;1.00
6355;DHT22;3210;48.708;9.030;2023-04-03T11:06:41;4.80;1.00
6355;DHT22;3210;48.708;9.030;2023-04-03T11:09:19;4.80;1.00
6355;DHT22;3210;48.708;9.030;2023-04-03T11:11:47;4.70;1.00
6355;DHT22;3210;48.708;9.030;2023-04-03T11:14:19;4.60;1.00
6355;DHT22;3210;48.708;9.030;2023-04-03T11:16:54;4.60;1.00
6355;DHT22;3210;48.708;9.030;2023-04-03T11:19:31;4.70;1.00
6355;DHT22;3210;48.708;9.030;2023-04-03T11:22:04;4.80;1.00
6355;DHT22;3210;48.708;9.030;2023-04-03T11:24:36;4.90;1.00
6355;DHT22;3210;48.708;9.030;2023-04-03T11:27:05;5.00;1.00
6355;DHT22;3210;48.708;9.030;2023-04-03T11:29:38;5.20;1.00
6355;DHT22;3210;48.708;9.030;2023-04-03T11:32:21;4.90;1.00
6355;DHT22;3210;48.708;9.030;2023-04-03T11:34:55;4.90;1.00
6355;DHT22;3210;48.708;9.030;2023-04-03T11:37:29;4.90;1.00
6355;DHT22;3210;48.708;9.030;2023-04-03T11:40:01;4.80;1.00
6355;DHT22;3210;48.708;9.030;2023-04-03T11:42:33;4.80;1.00
6355;DHT22;3210;48.708;9.030;2023-04-03T11:45:22;5.00;1.00
6355;DHT22;3210;48.708;9.030;2023-04-03T11:47:53;5.00;1.00
6355;DHT22;3210;48.708;9.030;2023-04-03T11:50:42;5.00;1.00
6355;DHT22;3210;48.708;9.030;2023-04-03T11:53:33;5.10;1.00
6355;DHT22;3210;48.708;9.030;2023-04-03T11:59:19;4.90;1.00
6355;DHT22;3210;48.708;9.030;2023-04-03T12:01:49;4.80;1.00
6355;DHT22;3210;48.708;9.030;2023-04-03T12:04:17;4.80;1.00
6355;DHT22;3210;48.708;9.030;2023-04-03T12:10:13;4.50;1.00
6355;DHT22;3210;48.708;9.030;2023-04-03T12:12:41;4.50;1.00
6355;DHT22;3210;48.708;9.030;2023-04-03T12:21:20;5.00;1.00
6355;DHT22;3210;48.708;9.030;2023-04-03T12:24:00;5.20;1.00
6355;DHT22;3210;48.708;9.030;2023-04-03T12:26:32;5.20;1.00
6355;DHT22;3210;48.708;9.030;2023-04-03T12:29:02;5.10;1.00
6355;DHT22;3210;48.708;9.030;2023-04-03T12:31:42;5.20;1.00
6355;DHT22;3210;48.708;9.030;2023-04-03T12:34:24;5.30;1.00
6355;DHT22;3210;48.708;9.030;2023-04-03T12:37:00;5.40;1.00
6355;DHT22;3210;48.708;9.030;2023-04-03T12:39:54;5.30;1.00
6355;DHT22;3210;48.708;9.030;2023-04-03T12:42:38;5.30;1.00
6355;DHT22;3210;48.708;9.030;2023-04-03T12:45:16;5.20;1.00
6355;DHT22;3210;48.708;9.030;2023-04-03T12:47:45;5.10;1.00
6355;DHT22;3210;48.708;9.030;2023-04-03T12:50:21;5.10;1.00
6355;DHT22;3210;48.708;9.030;2023-04-03T12:52:56;5.00;1.00
6355;DHT22;3210;48.708;9.030;2023-04-03T12:55:24;4.90;1.00
6355;DHT22;3210;48.708;9.030;2023-04-03T12:57:50;5.20;1.00
6355;DHT22;3210;48.708;9.030;2023-04-03T13:00:30;5.50;1.00
6355;DHT22;3210;48.708;9.030;2023-04-03T13:02:59;5.60;1.00
6355;DHT22;3210;48.708;9.030;2023-04-03T13:05:26;5.80;1.00
6355;DHT22;3210;48.708;9.030;2023-04-03T13:07:58;5.90;1.00
6355;DHT22;3210;48.708;9.030;2023-04-03T13:10:27;5.80;1.00
6355;DHT22;3210;48.708;9.030;2023-04-03T13:12:56;5.70;1.00
6355;DHT22;3210;48.708;9.030;2023-04-03T13:15:25;5.70;1.00
6355;DHT22;3210;48.708;9.030;2023-04-03T13:17:53;5.60;1.00
6355;DHT22;3210;48.708;9.030;2023-04-03T13:20:23;5.60;1.00
6355;DHT22;3210;48.708;9.030;2023-04-03T13:22:57;5.60;1.00
6355;DHT22;3210;48.708;9.030;2023-04-03T13:25:26;5.40;1.00
6355;DHT22;3210;48.708;9.030;2023-04-03T13:27:54;5.60;1.00
6355;DHT22;3210;48.708;9.030;2023-04-03T13:30:25;5.80;1.00
6355;DHT22;3210;48.708;9.030;2023-04-03T13:32:53;5.40;1.00
6355;DHT22;3210;48.708;9.030;2023-04-03T13:35:33;5.70;1.00
6355;DHT22;3210;48.708;9.030;2023-04-03T13:38:04;5.80;1.00
6355;DHT22;3210;48.708;9.030;2023-04-03T13:40:31;5.90;1.00
6355;DHT22;3210;48.708;9.030;2023-04-03T13:43:03;5.90;1.00
6355;DHT22;3210;48.708;9.030;2023-04-03T13:45:32;5.90;1.00
6355;DHT22;3210;48.708;9.030;2023-04-03T13:48:16;6.00;1.00
6355;DHT22;3210;48.708;9.030;2023-04-03T13:50:53;6.10;1.00
6355;DHT22;3210;48.708;9.030;2023-04-03T13:53:22;6.00;1.00
6355;DHT22;3210;48.708;9.030;2023-04-03T13:55:56;6.20;1.00
6355;DHT22;3210;48.708;9.030;2023-04-03T13:58:24;5.80;1.00
6355;DHT22;3210;48.708;9.030;2023-04-03T14:00:53;5.50;1.00
6355;DHT22;3210;48.708;9.030;2023-04-03T14:03:24;5.60;1.00
6355;DHT22;3210;48.708;9.030;2023-04-03T14:05:51;5.60;1.00
6355;DHT22;3210;48.708;9.030;2023-04-03T14:08:18;5.80;1.00
6355;DHT22;3210;48.708;9.030;2023-04-03T14:10:47;5.70;1.00
6355;DHT22;3210;48.708;9.030;2023-04-03T14:13:17;5.70;1.00
6355;DHT22;3210;48.708;9.030;2023-04-03T14:15:44;5.90;1.00
6355;DHT22;3210;48.708;9.030;2023-04-03T14:18:14;6.00;1.00
6355;DHT22;3210;48.708;9.030;2023-04-03T14:20:42;5.90;1.00
6355;DHT22;3210;48.708;9.030;2023-04-03T14:23:09;6.10;1.00
6355;DHT22;3210;48.708;9.030;2023-04-03T14:25:37;6.30;1.00
6355;DHT22;3210;48.708;9.030;2023-04-03T14:28:14;6.20;1.00
6355;DHT22;3210;48.708;9.030;2023-04-03T14:30:42;6.10;1.00
6355;DHT22;3210;48.708;9.030;2023-04-03T14:33:11;5.90;1.00
6355;DHT22;3210;48.708;9.030;2023-04-03T14:35:40;6.10;1.00
6355;DHT22;3210;48.708;9.030;2023-04-03T14:38:16;6.20;1.00
6355;DHT22;3210;48.708;9.030;2023-04-03T14:40:46;6.40;1.00
6355;DHT22;3210;48.708;9.030;2023-04-03T14:43:14;5.90;1.00
6355;DHT22;3210;48.708;9.030;2023-04-03T14:45:42;5.40;1.00
6355;DHT22;3210;48.708;9.030;2023-04-03T14:48:11;5.50;1.00
6355;DHT22;3210;48.708;9.030;2023-04-03T14:50:42;5.50;1.00
6355;DHT22;3210;48.708;9.030;2023-04-03T14:53:11;5.60;1.00
6355;DHT22;3210;48.708;9.030;2023-04-03T14:55:40;5.80;1.00
6355;DHT22;3210;48.708;9.030;2023-04-03T14:58:11;5.70;1.00
6355;DHT22;3210;48.708;9.030;2023-04-03T15:00:40;5.70;1.00
6355;DHT22;3210;48.708;9.030;2023-04-03T15:03:12;5.50;1.00
6355;DHT22;3210;48.708;9.030;2023-04-03T15:05:39;5.40;1.00
6355;DHT22;3210;48.708;9.030;2023-04-03T15:08:13;5.30;1.00
6355;DHT22;3210;48.708;9.030;2023-04-03T15:10:43;5.60;1.00
6355;DHT22;3210;48.708;9.030;2023-04-03T15:13:12;5.80;1.00
6355;DHT22;3210;48.708;9.030;2023-04-03T15:15:41;5.90;1.00
6355;DHT22;3210;48.708;9.030;2023-04-03T15:18:13;5.90;1.00
6355;DHT22;3210;48.708;9.030;2023-04-03T15:20:40;6.10;1.00
6355;DHT22;3210;48.708;9.030;2023-04-03T15:23:09;6.10;1.00
6355;DHT22;3210;48.708;9.030;2023-04-03T15:25:36;6.20;1.00
6355;DHT22;3210;48.708;9.030;2023-04-03T15:28:03;6.00;1.00
6355;DHT22;3210;48.708;9.030;2023-04-03T15:30:31;6.00;1.00
6355;DHT22;3210;48.708;9.030;2023-04-03T15:32:59;5.70;1.00
6355;DHT22;3210;48.708;9.030;2023-04-03T15:35:25;5.60;1.00
6355;DHT22;3210;48.708;9.030;2023-04-03T15:37:52;5.90;1.00
6355;DHT22;3210;48.708;9.030;2023-04-03T15:40:19;6.00;1.00
6355;DHT22;3210;48.708;9.030;2023-04-03T15:42:46;5.70;1.00
6355;DHT22;3210;48.708;9.030;2023-04-03T15:45:13;5.70;1.00
6355;DHT22;3210;48.708;9.030;2023-04-03T15:47:40;6.00;1.00
6355;DHT22;3210;48.708;9.030;2023-04-03T15:50:10;6.00;1.00
6355;DHT22;3210;48.708;9.030;2023-04-03T15:52:37;6.30;1.00
6355;DHT22;3210;48.708;9.030;2023-04-03T15:55:04;6.20;1.00
6355;DHT22;3210;48.708;9.030;2023-04-03T15:57:31;6.20;1.00
6355;DHT22;3210;48.708;9.030;2023-04-03T15:59:58;6.00;1.00
6355;DHT22;3210;48.708;9.030;2023-04-03T16:02:24;5.90;1.00
6355;DHT22;3210;48.708;9.030;2023-04-03T16:04:53;5.60;1.00
6355;DHT22;3210;48.708;9.030;2023-04-03T16:07:22;5.50;1.00
6355;DHT22;3210;48.708;9.030;2023-04-03T16:09:49;5.50;1.00
6355;DHT22;3210;48.708;9.030;2023-04-03T16:12:15;5.80;1.00
6355;DHT22;3210;48.708;9.030;2023-04-03T16:14:42;5.70;1.00
6355;DHT22;3210;48.708;9.030;2023-04-03T16:17:09;5.50;1.00
6355;DHT22;3210;48.708;9.030;2023-04-03T16:19:36;5.20;1.00
6355;DHT22;3210;48.708;9.030;2023-04-03T16:22:03;5.10;1.00
6355;DHT22;3210;48.708;9.030;2023-04-03T16:24:31;5.10;1.00
6355;DHT22;3210;48.708;9.030;2023-04-03T16:26:58;5.00;1.00
6355;DHT22;3210;48.708;9.030;2023-04-03T16:29:25;5.00;1.00
6355;DHT22;3210;48.708;9.030;2023-04-03T16:31:52;5.00;1.00
6355;DHT22;3210;48.708;9.030;2023-04-03T16:34:19;5.10;1.00
6355;DHT22;3210;48.708;9.030;2023-04-03T16:36:46;5.20;1.00
6355;DHT22;3210;48.708;9.030;2023-04-03T16:39:12;5.30;1.00
6355;DHT22;3210;48.708;9.030;2023-04-03T16:41:40;5.30;1.00
6355;DHT22;3210;48.708;9.030;2023-04-03T16:44:07;5.50;1.00
6355;DHT22;3210;48.708;9.030;2023-04-03T16:46:34;5.60;1.00
6355;DHT22;3210;48.708;9.030;2023-04-03T16:49:01;5.40;1.00
6355;DHT22;3210;48.708;9.030;2023-04-03T16:51:27;5.40;1.00
6355;DHT22;3210;48.708;9.030;2023-04-03T16:53:55;5.40;1.00
6355;DHT22;3210;48.708;9.030;2023-04-03T16:56:22;5.30;1.00
6355;DHT22;3210;48.708;9.030;2023-04-03T16:58:50;5.20;1.00
6355;DHT22;3210;48.708;9.030;2023-04-03T17:01:18;5.20;1.00
6355;DHT22;3210;48.708;9.030;2023-04-03T17:03:45;5.10;1.00